Time;durP1;ratioP1;P1;durP2;ratioP2;P2;SDS_P1;SDS_P2;PMS_P1;PMS_P2;Temp;Humidity;BMP_temperature;BMP_pressure;BME280_temperature;BME280_humidity;BME280_pressure;Samples;Min_cycle;Max_cycle;Signal;HPM_P1;HPM_P2
2023/09/28 00:01:39;;;;;;;9.77;3.65;;;;;;;21.34;53.84;99835.50;5053241;28;20028;-41
2023/09/28 00:04:06;;;;;;;7.07;3.88;;;;;;;21.67;52.88;99831.41;5053157;28;20063;-42
2023/09/28 00:06:31;;;;;;;5.72;3.90;;;;;;;21.48;53.58;99837.41;5053471;28;20037;-43
2023/09/28 00:08:57;;;;;;;9.45;3.72;;;;;;;21.63;53.49;99827.66;5053626;28;20408;-42
2023/09/28 00:11:23;;;;;;;9.45;3.50;;;;;;;21.70;52.82;99825.44;5053128;28;20452;-41
2023/09/28 00:13:48;;;;;;;8.27;3.60;;;;;;;21.80;52.56;99820.00;5053076;28;20028;-42
2023/09/28 00:16:14;;;;;;;12.05;4.10;;;;;;;21.90;52.56;99827.28;5053178;28;20104;-40
2023/09/28 00:18:39;;;;;;;9.10;3.45;;;;;;;21.93;52.38;99809.66;5053030;28;20033;-42
2023/09/28 00:21:04;;;;;;;8.93;3.97;;;;;;;21.93;52.44;99813.16;5052852;28;20131;-41
2023/09/28 00:23:30;;;;;;;8.25;3.90;;;;;;;21.91;52.17;99820.75;5052955;28;20025;-41
2023/09/28 00:25:55;;;;;;;5.97;3.67;;;;;;;22.15;51.64;99820.94;5052926;28;20417;-39
2023/09/28 00:28:21;;;;;;;8.13;3.70;;;;;;;21.91;52.31;99815.34;5052975;28;20037;-39
2023/09/28 00:30:48;;;;;;;8.13;3.80;;;;;;;21.85;52.32;99809.13;5052998;28;20108;-40
2023/09/28 00:33:14;;;;;;;9.73;4.00;;;;;;;21.66;52.82;99816.25;5052676;28;20035;-39
2023/09/28 00:35:39;;;;;;;7.47;3.70;;;;;;;21.70;53.04;99817.31;5052920;28;20037;-39
2023/09/28 00:38:05;;;;;;;9.07;4.00;;;;;;;21.67;52.65;99826.81;5052816;28;20021;-42
2023/09/28 00:40:34;;;;;;;9.07;4.10;;;;;;;21.76;53.09;99824.34;5052735;28;20550;-43
2023/09/28 00:43:00;;;;;;;7.57;3.83;;;;;;;21.74;52.94;99817.56;5052721;28;20104;-41
2023/09/28 00:45:27;;;;;;;7.63;4.10;;;;;;;21.67;53.30;99818.69;5051719;28;20040;-40
2023/09/28 00:48:04;;;;;;;10.23;4.00;;;;;;;21.43;53.91;99826.56;5051989;28;20025;-43
2023/09/28 00:50:33;;;;;;;10.13;4.28;;;;;;;21.46;53.66;99822.53;5051416;28;20027;-41
2023/09/28 00:53:01;;;;;;;7.97;4.22;;;;;;;21.65;54.04;99817.34;5051708;28;20032;-42
2023/09/28 00:55:27;;;;;;;8.07;4.00;;;;;;;21.80;53.53;99819.19;5051654;28;20493;-40
2023/09/28 00:57:57;;;;;;;9.05;3.95;;;;;;;21.60;53.18;99812.75;5051555;28;20111;-40
2023/09/28 01:00:26;;;;;;;10.52;4.15;;;;;;;21.60;53.14;99817.34;5051264;28;20045;-40
2023/09/28 01:02:53;;;;;;;6.90;3.88;;;;;;;21.58;52.69;99819.53;5051340;28;20025;-40
2023/09/28 01:05:33;;;;;;;7.55;3.88;;;;;;;21.38;53.01;99818.47;5051293;28;20078;-40
2023/09/28 01:08:15;;;;;;;8.83;4.13;;;;;;;21.23;53.29;99815.78;5051452;28;20037;-40
2023/09/28 01:10:41;;;;;;;8.30;4.03;;;;;;;21.06;53.82;99822.28;5051500;28;20025;-40
2023/09/28 01:13:15;;;;;;;8.25;3.92;;;;;;;20.97;54.02;99826.59;5051118;28;20036;-43
2023/09/28 01:15:43;;;;;;;5.43;3.75;;;;;;;20.49;55.30;99817.88;5051189;28;20460;-40
2023/09/28 01:18:16;;;;;;;7.47;3.83;;;;;;;20.08;56.24;99815.84;5051176;28;20060;-41
2023/09/28 01:20:43;;;;;;;9.18;4.05;;;;;;;20.03;56.60;99810.44;5051142;28;20028;-42
2023/09/28 01:23:09;;;;;;;8.25;3.70;;;;;;;20.14;56.50;99810.47;5051456;28;20184;-42
2023/09/28 01:25:35;;;;;;;6.80;4.10;;;;;;;20.24;55.66;99814.00;5051108;28;20583;-41
2023/09/28 01:28:01;;;;;;;7.90;4.10;;;;;;;20.10;56.08;99821.81;5050982;28;20047;-41
2023/09/28 01:30:27;;;;;;;8.45;3.72;;;;;;;20.38;55.61;99813.50;5051071;28;20457;-41
2023/09/28 01:32:53;;;;;;;8.13;4.20;;;;;;;20.60;54.07;99802.47;5051070;28;20412;-42
2023/09/28 01:35:19;;;;;;;7.95;4.38;;;;;;;20.81;54.09;99806.03;5051084;28;20036;-41
2023/09/28 01:38:09;;;;;;;7.72;3.97;;;;;;;20.60;54.82;99808.72;5051842;28;20516;-40
2023/09/28 01:40:35;;;;;;;6.60;3.78;;;;;;;20.58;54.77;99807.31;5051926;28;20025;-42
2023/09/28 01:43:00;;;;;;;6.28;4.00;;;;;;;20.64;54.48;99801.69;5051696;28;20507;-42
2023/09/28 01:45:26;;;;;;;13.18;4.40;;;;;;;20.74;53.94;99797.38;5051841;28;20515;-41
2023/09/28 01:47:51;;;;;;;7.82;4.28;;;;;;;20.77;54.78;99802.22;5051515;28;20055;-42
2023/09/28 01:50:17;;;;;;;7.18;4.15;;;;;;;20.92;54.54;99794.13;5051471;28;20028;-43
2023/09/28 01:52:42;;;;;;;13.20;4.13;;;;;;;20.70;55.18;99794.41;5051784;28;20028;-40
2023/09/28 01:55:08;;;;;;;9.00;3.80;;;;;;;20.97;54.00;99796.03;5051108;28;20033;-41
2023/09/28 01:57:33;;;;;;;7.82;4.13;;;;;;;21.00;53.87;99801.72;5051398;28;20127;-40
2023/09/28 02:00:05;;;;;;;10.63;4.10;;;;;;;21.15;53.64;99800.91;5051098;28;20052;-41
2023/09/28 02:02:34;;;;;;;6.53;3.70;;;;;;;21.18;53.26;99797.63;5051692;28;20443;-42
2023/09/28 02:04:59;;;;;;;6.40;4.18;;;;;;;21.20;53.40;99795.47;5051220;28;20472;-40
2023/09/28 02:07:25;;;;;;;8.45;4.40;;;;;;;21.06;54.19;99800.63;5051096;28;20044;-40
2023/09/28 02:09:50;;;;;;;10.73;4.10;;;;;;;21.18;53.57;99807.66;5051463;28;20396;-40
2023/09/28 02:12:16;;;;;;;8.40;4.07;;;;;;;20.80;55.00;99805.22;5051221;28;20051;-41
2023/09/28 02:14:41;;;;;;;10.13;4.40;;;;;;;20.95;54.96;99811.72;5051369;28;20037;-41
2023/09/28 02:17:06;;;;;;;8.98;3.80;;;;;;;20.91;55.00;99811.44;5051497;28;20056;-42
2023/09/28 02:19:32;;;;;;;10.43;3.70;;;;;;;20.78;55.21;99809.28;5051317;28;20032;-41
2023/09/28 02:21:57;;;;;;;7.13;3.78;;;;;;;20.91;55.00;99808.75;5051358;28;20438;-41
2023/09/28 02:24:23;;;;;;;6.82;4.18;;;;;;;20.75;54.90;99813.31;5051181;28;20029;-43
2023/09/28 02:26:51;;;;;;;11.68;4.25;;;;;;;20.88;54.06;99806.56;5051126;28;20033;-41
2023/09/28 02:29:17;;;;;;;8.43;3.60;;;;;;;21.02;53.61;99813.06;5051074;28;20055;-41
2023/09/28 02:31:42;;;;;;;7.50;3.70;;;;;;;20.88;54.18;99810.06;5051246;28;20025;-42
2023/09/28 02:34:08;;;;;;;6.90;3.65;;;;;;;21.00;54.09;99807.13;5051188;28;20025;-42
2023/09/28 02:36:35;;;;;;;6.45;3.63;;;;;;;20.79;54.55;99810.88;5051275;28;20021;-42
2023/09/28 02:39:00;;;;;;;8.15;5.43;;;;;;;20.68;53.98;99810.88;5051189;28;20075;-41
2023/09/28 02:41:26;;;;;;;7.55;4.20;;;;;;;20.87;53.82;99808.47;5050942;28;20033;-40
2023/09/28 02:43:51;;;;;;;12.68;5.55;;;;;;;20.87;53.94;99799.56;5050820;28;20029;-41
2023/09/28 02:46:17;;;;;;;6.65;4.13;;;;;;;20.82;53.96;99804.94;5050933;28;20028;-41
2023/09/28 02:48:42;;;;;;;8.65;3.70;;;;;;;20.99;52.92;99813.59;5050827;28;20024;-40
2023/09/28 02:51:10;;;;;;;8.43;3.70;;;;;;;20.79;53.50;99813.59;5050755;28;20032;-41
2023/09/28 02:53:36;;;;;;;6.47;3.50;;;;;;;20.94;53.61;99815.50;5050729;28;20063;-41
2023/09/28 02:56:03;;;;;;;4.70;3.55;;;;;;;21.11;52.68;99817.94;5050974;28;20052;-40
2023/09/28 02:58:29;;;;;;;5.93;3.53;;;;;;;21.06;53.26;99824.97;5050709;28;20166;-42
2023/09/28 03:00:56;;;;;;;7.18;3.83;;;;;;;21.16;53.10;99815.22;5050155;28;20161;-40
2023/09/28 03:03:22;;;;;;;6.60;3.47;;;;;;;21.24;52.88;99820.09;5050897;28;20114;-41
2023/09/28 03:05:48;;;;;;;10.70;3.60;;;;;;;21.04;52.45;99824.44;5050657;28;20145;-40
2023/09/28 03:08:14;;;;;;;6.20;3.85;;;;;;;21.21;52.75;99824.16;5052926;28;20428;-43
2023/09/28 03:10:41;;;;;;;11.85;5.68;;;;;;;21.25;53.03;99817.13;5054886;28;20020;-40
2023/09/28 03:13:06;;;;;;;9.25;6.72;;;;;;;21.35;52.99;99819.00;5054122;28;20033;-40
2023/09/28 03:15:32;;;;;;;10.43;5.00;;;;;;;21.34;52.55;99816.56;5053111;28;20032;-41
2023/09/28 03:17:58;;;;;;;10.40;4.57;;;;;;;21.48;51.85;99825.78;5054230;28;20112;-41
2023/09/28 03:20:24;;;;;;;7.45;3.67;;;;;;;21.40;51.62;99818.16;5054127;28;20100;-40
2023/09/28 03:22:50;;;;;;;9.15;4.10;;;;;;;21.54;51.83;99818.47;5054314;28;20078;-42
2023/09/28 03:25:17;;;;;;;11.00;3.67;;;;;;;21.43;52.04;99815.72;5053910;28;20020;-42
2023/09/28 03:27:45;;;;;;;8.77;3.65;;;;;;;21.46;51.96;99812.50;5053992;28;20025;-41
2023/09/28 03:30:11;;;;;;;7.78;4.30;;;;;;;21.52;52.18;99813.31;5053772;28;20021;-43
2023/09/28 03:32:41;;;;;;;15.38;8.02;;;;;;;21.69;51.60;99813.00;5053926;28;20028;-43
2023/09/28 03:35:16;;;;;;;8.60;4.10;;;;;;;21.51;51.15;99810.88;5053927;28;20163;-40
2023/09/28 03:37:42;;;;;;;6.40;3.70;;;;;;;21.29;51.92;99810.06;5034055;28;20044;-40
2023/09/28 03:40:12;;;;;;;5.75;3.58;;;;;;;21.34;51.70;99809.25;5033535;28;20382;-42
2023/09/28 03:42:42;;;;;;;9.25;3.60;;;;;;;21.25;52.93;99813.59;5038719;28;20103;-40
2023/09/28 03:45:09;;;;;;;6.95;3.45;;;;;;;21.23;51.42;99826.59;5053191;28;20429;-44
2023/09/28 03:47:39;;;;;;;6.82;3.45;;;;;;;20.89;51.95;99821.72;5053036;28;20583;-40
2023/09/28 03:50:06;;;;;;;8.45;3.53;;;;;;;20.81;53.00;99819.53;5053458;28;20508;-41
2023/09/28 03:52:34;;;;;;;6.10;3.30;;;;;;;20.98;52.60;99830.94;5053343;28;20035;-40
2023/09/28 03:54:59;;;;;;;5.75;3.60;;;;;;;20.95;52.46;99826.06;5053562;28;20036;-41
2023/09/28 03:57:25;;;;;;;7.72;3.53;;;;;;;20.95;52.27;99827.94;5053460;28;20025;-41
2023/09/28 03:59:50;;;;;;;5.78;3.47;;;;;;;21.23;51.59;99840.13;5053105;28;20094;-42
2023/09/28 04:02:15;;;;;;;4.95;3.30;;;;;;;21.26;51.80;99831.44;5064512;28;20054;-41
2023/09/28 04:04:41;;;;;;;7.78;3.42;;;;;;;21.25;51.59;99832.53;5071372;28;20051;-39
2023/09/28 04:07:08;;;;;;;10.55;3.70;;;;;;;21.42;51.54;99835.78;5054591;28;20025;-39
2023/09/28 04:09:33;;;;;;;8.02;3.50;;;;;;;21.38;52.09;99834.69;5055608;28;20079;-40
2023/09/28 04:11:59;;;;;;;8.15;3.65;;;;;;;21.09;53.55;99832.56;5067358;28;20485;-41
2023/09/28 04:14:25;;;;;;;6.55;3.58;;;;;;;21.06;52.21;99838.50;5063109;28;20060;-40
2023/09/28 04:16:50;;;;;;;8.02;3.78;;;;;;;21.46;54.68;99841.47;5059755;28;20100;-41
2023/09/28 04:19:16;;;;;;;8.13;4.70;;;;;;;21.71;52.31;99837.91;5053306;28;20079;-41
2023/09/28 04:21:41;;;;;;;10.45;4.70;;;;;;;21.81;50.82;99837.06;5053043;28;20025;-41
2023/09/28 04:24:07;;;;;;;8.13;3.75;;;;;;;21.84;51.96;99836.53;5053065;28;20469;-41
2023/09/28 04:26:32;;;;;;;7.85;3.65;;;;;;;21.73;51.64;99837.63;5052632;28;20028;-40
2023/09/28 04:28:58;;;;;;;8.52;3.78;;;;;;;21.73;50.93;99841.16;5052932;28;20025;-42
2023/09/28 04:31:23;;;;;;;9.43;4.20;;;;;;;21.63;51.41;99843.91;5052808;28;20107;-40
2023/09/28 04:33:49;;;;;;;8.75;4.07;;;;;;;21.29;51.56;99852.56;5052986;28;20384;-40
2023/09/28 04:36:14;;;;;;;9.27;4.07;;;;;;;21.47;51.62;99853.91;5051684;28;20100;-40
2023/09/28 04:38:41;;;;;;;13.25;4.45;;;;;;;21.63;50.21;99858.22;5052504;28;20032;-41
2023/09/28 04:41:06;;;;;;;6.28;3.78;;;;;;;21.65;50.79;99857.97;5050921;28;20118;-42
2023/09/28 04:43:31;;;;;;;11.35;4.00;;;;;;;21.66;50.11;99854.97;5045926;28;20681;-42
2023/09/28 04:45:57;;;;;;;8.50;3.80;;;;;;;21.53;52.60;99863.66;5047460;28;20033;-40
2023/09/28 04:48:22;;;;;;;11.20;3.63;;;;;;;21.65;50.70;99869.59;5049756;28;20029;-40
2023/09/28 04:50:48;;;;;;;10.15;3.80;;;;;;;21.51;50.36;99868.53;5044854;28;20020;-41
2023/09/28 04:53:13;;;;;;;12.30;3.70;;;;;;;21.40;51.68;99864.19;5052434;28;20683;-40
2023/09/28 04:55:38;;;;;;;9.90;3.75;;;;;;;21.60;50.75;99864.19;5052039;28;20124;-40
2023/09/28 04:58:04;;;;;;;12.38;4.05;;;;;;;21.73;52.54;99873.66;5050611;28;20489;-41
2023/09/28 05:00:30;;;;;;;20.30;11.27;;;;;;;21.88;50.03;99880.94;5049707;28;20045;-41
2023/09/28 05:02:55;;;;;;;16.17;8.10;;;;;;;21.26;52.34;99880.16;5050291;28;20401;-41
2023/09/28 05:05:21;;;;;;;12.90;4.90;;;;;;;21.97;54.83;99875.72;5050383;28;20029;-41
2023/09/28 05:07:46;;;;;;;7.95;4.30;;;;;;;22.18;52.80;99874.59;5049745;28;20098;-40
2023/09/28 05:10:12;;;;;;;9.90;4.10;;;;;;;22.21;51.97;99879.44;5041930;28;20466;-40
2023/09/28 05:12:38;;;;;;;7.13;3.70;;;;;;;22.56;51.62;99871.44;5030498;28;20654;-40
2023/09/28 05:15:04;;;;;;;9.48;4.85;;;;;;;22.74;50.48;99864.56;5047903;28;20025;-40
2023/09/28 05:17:31;;;;;;;11.43;5.63;;;;;;;22.99;52.53;99871.72;5031016;28;20025;-39
2023/09/28 05:19:56;;;;;;;9.18;6.15;;;;;;;23.44;51.14;99869.75;5031306;28;20045;-41
2023/09/28 05:22:22;;;;;;;12.40;8.77;;;;;;;23.53;49.12;99876.19;5031345;28;20061;-39
2023/09/28 05:24:47;;;;;;;11.00;4.95;;;;;;;23.69;48.69;99879.53;5033789;28;20029;-41
2023/09/28 05:27:13;;;;;;;10.60;4.10;;;;;;;23.80;46.18;99878.38;5044175;28;20115;-40
2023/09/28 05:29:39;;;;;;;11.18;4.40;;;;;;;23.83;46.10;99884.34;5041962;28;20039;-42
2023/09/28 05:32:05;;;;;;;6.93;3.67;;;;;;;23.91;45.10;99875.53;5051114;28;20040;-40
2023/09/28 05:34:31;;;;;;;11.18;3.90;;;;;;;24.03;45.39;99875.13;5051318;28;20028;-39
2023/09/28 05:36:56;;;;;;;10.77;3.88;;;;;;;24.00;45.29;99884.69;5051078;28;20021;-41
2023/09/28 05:39:22;;;;;;;8.40;4.20;;;;;;;23.99;45.14;99885.78;5051071;28;20025;-39
2023/09/28 05:41:47;;;;;;;9.15;3.85;;;;;;;24.01;46.92;99880.88;5033500;28;20041;-41
2023/09/28 05:44:13;;;;;;;8.27;3.95;;;;;;;24.28;45.67;99876.75;5031282;28;20076;-40
2023/09/28 05:46:39;;;;;;;13.32;4.38;;;;;;;24.49;45.34;99883.53;5036710;28;20033;-39
2023/09/28 05:49:05;;;;;;;8.20;3.78;;;;;;;24.67;44.92;99883.84;5071152;28;20173;-40
2023/09/28 05:51:31;;;;;;;6.47;3.70;;;;;;;24.66;45.16;99884.97;5057736;28;20669;-40
2023/09/28 05:53:56;;;;;;;8.82;3.97;;;;;;;24.55;45.85;99887.81;5051167;28;20100;-41
2023/09/28 05:56:21;;;;;;;12.05;4.30;;;;;;;24.75;45.56;99883.19;5051182;28;20025;-40
2023/09/28 05:58:48;;;;;;;11.25;4.63;;;;;;;24.49;44.18;99877.28;5050849;28;20029;-40
2023/09/28 06:01:16;;;;;;;9.07;4.22;;;;;;;24.28;44.31;99885.69;5050772;28;20099;-40
2023/09/28 06:03:43;;;;;;;10.77;4.18;;;;;;;24.60;44.11;99897.84;5050607;28;20029;-40
2023/09/28 06:06:16;;;;;;;8.73;4.25;;;;;;;24.59;43.79;99897.00;5050557;28;20037;-41
2023/09/28 06:08:43;;;;;;;10.90;4.85;;;;;;;24.50;44.13;99896.03;5050894;28;20028;-40
2023/09/28 06:11:13;;;;;;;8.25;4.10;;;;;;;24.64;45.27;99900.78;5050987;28;20109;-41
2023/09/28 06:13:42;;;;;;;11.23;4.22;;;;;;;24.70;44.75;99894.97;5050623;28;20025;-43
2023/09/28 06:16:11;;;;;;;15.95;4.80;;;;;;;24.58;43.94;99911.72;5050869;28;20515;-41
2023/09/28 06:18:37;;;;;;;;;;;;;;;24.56;44.21;99915.81;5051410;28;20075;-39
2023/09/28 06:21:02;;;;;;;11.38;4.60;;;;;;;24.71;43.35;99917.53;5050858;28;19916;-40
2023/09/28 06:23:28;;;;;;;12.85;4.43;;;;;;;24.31;44.78;99906.06;5050659;28;20025;-40
2023/09/28 06:25:53;;;;;;;13.25;4.70;;;;;;;24.38;45.21;99912.75;5050548;28;20423;-40
2023/09/28 06:28:21;;;;;;;8.02;4.10;;;;;;;24.62;44.10;99914.69;5050525;28;20087;-40
2023/09/28 06:30:46;;;;;;;10.82;4.05;;;;;;;24.68;43.72;99908.06;5050756;28;20028;-41
2023/09/28 06:33:11;;;;;;;10.48;3.58;;;;;;;24.64;44.05;99917.09;5050675;28;20023;-39
2023/09/28 06:35:37;;;;;;;6.70;3.60;;;;;;;24.75;43.47;99918.56;5050561;28;20044;-40
2023/09/28 06:38:02;;;;;;;9.00;3.85;;;;;;;24.46;43.87;99929.53;5050179;28;20090;-41
2023/09/28 06:40:28;;;;;;;7.03;3.80;;;;;;;24.61;43.75;99917.69;5050427;28;20105;-41
2023/09/28 06:42:53;;;;;;;8.05;4.20;;;;;;;24.29;44.13;99922.66;5052145;28;20098;-41
2023/09/28 06:45:18;;;;;;;8.18;4.40;;;;;;;24.24;44.35;99921.91;5054053;28;20048;-41
2023/09/28 06:47:44;;;;;;;10.48;4.68;;;;;;;24.63;43.84;99929.06;5053875;28;20656;-40
2023/09/28 06:50:11;;;;;;;8.48;3.75;;;;;;;24.71;43.81;99921.09;5053239;28;20101;-41
2023/09/28 06:52:36;;;;;;;6.05;3.72;;;;;;;24.93;42.78;99920.47;5054468;28;20439;-41
2023/09/28 06:55:04;;;;;;;11.10;3.90;;;;;;;24.92;42.71;99921.59;5054585;28;20031;-40
2023/09/28 06:57:30;;;;;;;6.78;4.20;;;;;;;25.04;42.65;99921.16;5053839;28;20021;-40
2023/09/28 06:59:55;;;;;;;10.95;4.47;;;;;;;24.93;42.85;99922.41;5053565;28;20440;-40
2023/09/28 07:02:21;;;;;;;9.20;4.32;;;;;;;24.80;43.20;99923.94;5054133;28;20025;-42
2023/09/28 07:04:47;;;;;;;10.10;4.57;;;;;;;24.28;44.19;99922.97;5054289;28;20078;-41
2023/09/28 07:07:16;;;;;;;12.20;4.20;;;;;;;24.55;43.87;99928.63;5053839;28;20032;-39
2023/09/28 07:09:42;;;;;;;8.45;3.97;;;;;;;24.69;43.71;99927.91;5053698;28;20025;-41
2023/09/28 07:12:10;;;;;;;9.75;3.85;;;;;;;25.44;42.74;99929.00;5053577;28;20028;-41
2023/09/28 07:14:36;;;;;;;9.50;4.30;;;;;;;25.42;42.55;99928.47;5054304;28;20021;-41
2023/09/28 07:17:01;;;;;;;13.25;4.75;;;;;;;25.65;42.01;99930.25;5054542;28;20070;-41
2023/09/28 07:19:27;;;;;;;10.35;4.20;;;;;;;26.06;40.88;99943.13;5054191;28;20025;-42
2023/09/28 07:21:53;;;;;;;14.10;4.50;;;;;;;25.81;41.14;99943.59;5053783;28;20397;-41
2023/09/28 07:24:19;;;;;;;8.88;4.25;;;;;;;25.53;41.24;99940.81;5053362;28;20083;-41
2023/09/28 07:26:46;;;;;;;6.03;3.67;;;;;;;25.61;40.72;99933.84;5053525;28;20397;-40
2023/09/28 07:29:15;;;;;;;15.00;3.80;;;;;;;25.14;41.83;99939.22;5054080;28;20017;-41
2023/09/28 07:31:40;;;;;;;9.80;3.78;;;;;;;25.51;41.08;99943.00;5053431;28;20023;-41
2023/09/28 07:34:05;;;;;;;7.93;3.55;;;;;;;25.40;40.85;99942.41;5053537;28;20108;-41
2023/09/28 07:36:31;;;;;;;8.13;3.70;;;;;;;25.88;40.20;99941.31;5053491;28;20027;-42
2023/09/28 07:38:56;;;;;;;6.45;3.45;;;;;;;26.03;39.73;99943.75;5053429;28;20048;-41
2023/09/28 07:41:22;;;;;;;6.60;3.78;;;;;;;26.13;39.52;99946.28;5053285;28;20068;-41
2023/09/28 07:43:47;;;;;;;6.60;3.38;;;;;;;26.05;39.72;99943.47;5053611;28;20021;-42
2023/09/28 07:46:13;;;;;;;8.75;3.60;;;;;;;26.49;38.98;99936.59;5053471;28;20021;-41
2023/09/28 07:48:40;;;;;;;9.57;3.40;;;;;;;26.58;38.89;99932.03;5053451;28;20048;-39
2023/09/28 07:51:05;;;;;;;7.50;3.58;;;;;;;26.55;39.12;99940.00;5053108;28;20017;-42
2023/09/28 07:53:31;;;;;;;9.43;3.67;;;;;;;26.80;38.58;99936.75;5053367;28;20021;-40
2023/09/28 07:55:56;;;;;;;8.55;3.85;;;;;;;26.86;38.49;99943.69;5053343;28;20449;-41
2023/09/28 07:58:22;;;;;;;11.35;4.28;;;;;;;26.56;38.84;99933.44;5053045;28;20109;-41
2023/09/28 08:00:48;;;;;;;8.48;3.28;;;;;;;26.36;38.80;99930.03;5052450;28;20120;-41
2023/09/28 08:03:15;;;;;;;8.70;3.30;;;;;;;26.62;38.44;99930.31;5053156;28;20029;-42
2023/09/28 08:05:40;;;;;;;10.18;3.35;;;;;;;27.03;38.33;99934.06;5052535;28;20025;-41
2023/09/28 08:08:06;;;;;;;9.82;3.38;;;;;;;27.37;37.30;99930.00;5052921;28;20028;-41
2023/09/28 08:10:33;;;;;;;11.50;3.70;;;;;;;27.41;37.28;99928.25;5052620;28;20087;-42
2023/09/28 08:12:59;;;;;;;5.82;3.03;;;;;;;27.38;36.92;99926.97;5052821;28;20481;-43
2023/09/28 08:15:25;;;;;;;11.43;3.63;;;;;;;27.44;36.82;99930.38;5052769;28;20457;-42
2023/09/28 08:17:50;;;;;;;10.10;3.78;;;;;;;27.45;36.95;99927.31;5052799;28;20575;-41
2023/09/28 08:20:16;;;;;;;9.85;3.55;;;;;;;27.23;37.43;99928.09;5052512;28;20035;-41
2023/09/28 08:22:42;;;;;;;9.07;3.42;;;;;;;27.36;36.87;99931.94;5052152;28;20060;-41
2023/09/28 08:25:08;;;;;;;9.52;3.47;;;;;;;27.24;36.94;99935.16;5052634;28;20057;-40
2023/09/28 08:27:33;;;;;;;9.13;3.75;;;;;;;27.26;37.29;99935.72;5052248;28;20029;-41
2023/09/28 08:29:59;;;;;;;7.95;3.22;;;;;;;27.51;36.44;99927.97;5051218;28;20033;-40
2023/09/28 08:32:25;;;;;;;7.35;3.60;;;;;;;27.53;36.10;99928.50;5052543;28;20112;-43
2023/09/28 08:34:51;;;;;;;7.50;3.33;;;;;;;27.46;36.74;99928.94;5052322;28;20572;-40
2023/09/28 08:37:16;;;;;;;5.72;3.13;;;;;;;27.57;36.55;99929.50;5052069;28;20045;-41
2023/09/28 08:39:41;;;;;;;9.23;3.95;;;;;;;27.69;36.19;99926.16;5052152;28;20033;-45
2023/09/28 08:42:15;;;;;;;7.65;3.30;;;;;;;27.77;36.18;99922.66;5052581;28;20496;-42
2023/09/28 08:44:41;;;;;;;7.63;3.08;;;;;;;27.81;35.93;99917.38;5052419;28;20024;-42
2023/09/28 08:47:16;;;;;;;7.60;3.25;;;;;;;27.77;36.16;99910.94;5052109;28;20036;-43
2023/09/28 08:49:50;;;;;;;7.78;3.35;;;;;;;27.91;35.48;99921.78;5052289;28;20167;-43
2023/09/28 08:52:17;;;;;;;6.63;3.50;;;;;;;27.48;35.95;99920.44;5051601;28;20551;-41
2023/09/28 08:54:42;;;;;;;5.78;3.38;;;;;;;27.46;36.46;99919.94;5052085;28;20481;-42
2023/09/28 08:57:09;;;;;;;5.53;3.10;;;;;;;27.84;35.85;99923.03;5051827;28;20031;-41
2023/09/28 08:59:36;;;;;;;8.45;3.13;;;;;;;27.82;35.88;99917.06;5051423;28;20114;-43
2023/09/28 09:02:03;;;;;;;8.23;3.80;;;;;;;28.10;35.40;99911.41;5051831;28;20060;-41
2023/09/28 09:04:34;;;;;;;11.90;4.03;;;;;;;28.39;35.12;99913.59;5051185;28;20075;-40
2023/09/28 09:07:02;;;;;;;6.15;3.60;;;;;;;28.68;34.55;99906.75;5051795;28;20029;-43
2023/09/28 09:09:29;;;;;;;6.13;3.10;;;;;;;28.52;34.88;99913.78;5051852;28;20024;-42
2023/09/28 09:11:58;;;;;;;7.47;3.22;;;;;;;28.54;35.05;99912.38;5051847;28;20024;-41
2023/09/28 09:14:30;;;;;;;7.70;3.40;;;;;;;28.83;34.81;99910.94;5051406;28;20555;-44
2023/09/28 09:16:55;;;;;;;9.07;3.83;;;;;;;28.18;35.36;99909.81;5051535;28;20274;-42
2023/09/28 09:19:21;;;;;;;5.18;3.20;;;;;;;28.47;34.99;99899.13;5051650;28;20032;-43
2023/09/28 09:21:47;;;;;;;6.68;3.28;;;;;;;28.99;34.20;99901.09;5051534;28;20021;-41
2023/09/28 09:24:14;;;;;;;6.97;3.17;;;;;;;28.36;34.86;99906.00;5051416;28;20036;-41
2023/09/28 09:26:44;;;;;;;7.32;3.22;;;;;;;28.16;34.90;99904.69;5051102;28;20099;-43
2023/09/28 09:29:11;;;;;;;9.32;3.20;;;;;;;28.35;34.85;99898.13;5051122;28;20037;-42
2023/09/28 09:31:40;;;;;;;5.60;2.83;;;;;;;28.40;34.79;99896.03;5051193;28;20032;-42
2023/09/28 09:34:13;;;;;;;4.72;2.78;;;;;;;28.65;34.69;99899.16;5051139;28;20028;-40
2023/09/28 09:36:39;;;;;;;9.35;3.00;;;;;;;29.10;34.41;99896.09;5051396;28;20056;-42
2023/09/28 09:39:08;;;;;;;5.85;2.88;;;;;;;29.17;34.08;99893.72;5051312;28;20449;-42
2023/09/28 09:41:46;;;;;;;5.95;2.97;;;;;;;29.46;33.74;99886.72;5051074;28;20070;-42
2023/09/28 09:44:16;;;;;;;4.50;2.55;;;;;;;29.81;32.88;99890.16;5051142;28;20033;-42
2023/09/28 09:46:42;;;;;;;6.78;3.10;;;;;;;29.71;33.77;99873.25;5051374;28;20063;-41
2023/09/28 09:49:08;;;;;;;5.90;2.97;;;;;;;29.83;33.21;99884.34;5051055;28;20136;-43
2023/09/28 09:51:35;;;;;;;8.30;3.35;;;;;;;29.74;33.48;99878.91;5050870;28;20021;-42
2023/09/28 09:54:01;;;;;;;7.38;3.00;;;;;;;29.79;32.70;99872.44;5051219;28;20055;-45
2023/09/28 09:56:28;;;;;;;5.10;2.85;;;;;;;30.05;32.98;99882.50;5051195;28;20100;-41
2023/09/28 09:58:55;;;;;;;6.28;3.47;;;;;;;29.98;32.16;99877.50;5050785;28;20025;-41
2023/09/28 10:01:22;;;;;;;6.25;2.90;;;;;;;30.11;32.47;99876.47;5050808;28;20411;-44
2023/09/28 10:03:51;;;;;;;4.60;3.00;;;;;;;30.28;32.21;99880.25;5050712;28;20031;-41
2023/09/28 10:06:22;;;;;;;5.30;3.00;;;;;;;30.21;32.23;99878.84;5050787;28;20067;-44
2023/09/28 10:08:53;;;;;;;5.60;2.90;;;;;;;30.21;31.84;99878.84;5050650;28;20086;-42
2023/09/28 10:11:19;;;;;;;5.03;2.80;;;;;;;30.04;32.30;99869.91;5050317;28;20032;-42
2023/09/28 10:13:48;;;;;;;4.63;2.60;;;;;;;29.32;33.22;99872.41;5050479;28;20412;-41
2023/09/28 10:16:17;;;;;;;7.47;2.88;;;;;;;29.18;33.36;99865.16;5051001;28;20111;-41
2023/09/28 10:18:45;;;;;;;;;;;;;;;29.32;33.52;99870.47;5055218;28;20520;-41
2023/09/28 10:21:13;;;;;;;8.25;2.85;;;;;;;29.84;33.08;99876.94;5054637;28;19920;-43
2023/09/28 10:23:40;;;;;;;7.72;3.00;;;;;;;30.41;32.38;99862.75;5054518;28;20119;-42
2023/09/28 10:26:14;;;;;;;9.48;2.67;;;;;;;30.34;32.44;99871.50;5054401;28;20032;-44
2023/09/28 10:29:06;;;;;;;6.43;2.80;;;;;;;30.23;33.10;99874.94;5054423;28;20040;-41
2023/09/28 10:31:39;;;;;;;5.57;2.70;;;;;;;30.88;31.91;99870.78;5053545;28;20440;-42
2023/09/28 10:34:07;;;;;;;7.22;3.00;;;;;;;30.46;31.79;99859.00;5054072;28;20051;-42
2023/09/28 10:36:35;;;;;;;7.40;2.90;;;;;;;30.84;32.17;99869.84;5054549;28;20469;-42
2023/09/28 10:39:17;;;;;;;7.80;3.13;;;;;;;31.26;31.78;99856.03;5054124;28;20025;-43
2023/09/28 10:41:50;;;;;;;7.53;2.80;;;;;;;30.74;32.38;99860.06;5054194;28;20052;-45
2023/09/28 10:44:18;;;;;;;10.60;2.92;;;;;;;31.15;31.66;99850.19;5054318;28;20025;-41
2023/09/28 10:46:48;;;;;;;6.80;2.90;;;;;;;31.03;31.93;99852.09;5054080;28;20032;-43
2023/09/28 10:49:21;;;;;;;8.73;2.95;;;;;;;31.43;31.37;99851.50;5054057;28;20033;-44
2023/09/28 10:51:47;;;;;;;6.80;2.90;;;;;;;31.16;32.27;99856.47;5053282;28;20056;-42
2023/09/28 10:54:13;;;;;;;5.55;2.90;;;;;;;31.59;31.46;99844.22;5053655;28;20099;-42
2023/09/28 10:56:39;;;;;;;6.18;2.80;;;;;;;31.22;31.89;99843.31;5053867;28;20408;-43
2023/09/28 10:59:06;;;;;;;4.60;2.95;;;;;;;31.81;31.39;99842.16;5053860;28;20028;-42
2023/09/28 11:01:31;;;;;;;6.75;3.22;;;;;;;32.12;30.81;99844.34;5054111;28;20473;-44
2023/09/28 11:03:57;;;;;;;5.72;3.15;;;;;;;32.14;30.49;99837.34;5053922;28;20082;-43
2023/09/28 11:06:23;;;;;;;3.92;2.83;;;;;;;31.91;31.09;99842.50;5053949;28;20534;-44
2023/09/28 11:08:49;;;;;;;8.88;3.42;;;;;;;31.45;31.40;99830.75;5053763;28;20074;-42
2023/09/28 11:11:17;;;;;;;5.07;3.30;;;;;;;31.17;31.54;99834.16;5053749;28;20025;-41
2023/09/28 11:13:43;;;;;;;3.60;2.70;;;;;;;31.11;31.87;99837.44;5053860;28;20622;-47
2023/09/28 11:16:11;;;;;;;6.10;3.00;;;;;;;31.44;31.48;99836.63;5054070;28;20267;-43
2023/09/28 11:18:37;;;;;;;6.80;3.03;;;;;;;31.97;30.48;99829.31;5053825;28;20059;-44
2023/09/28 11:21:03;;;;;;;5.07;2.85;;;;;;;31.82;30.83;99830.81;5053245;28;20462;-42
2023/09/28 11:23:29;;;;;;;6.22;3.05;;;;;;;31.73;30.86;99830.13;5053749;28;20112;-43
2023/09/28 11:25:55;;;;;;;6.93;3.05;;;;;;;31.86;31.26;99828.97;5052449;28;20441;-42
2023/09/28 11:28:22;;;;;;;6.07;3.05;;;;;;;32.13;31.90;99823.94;5050452;28;20028;-47
2023/09/28 11:31:10;;;;;;;6.80;3.10;;;;;;;31.79;31.22;99820.50;5051303;28;20017;-42